Time;durP1;ratioP1;P1;durP2;ratioP2;P2;SDS_P1;SDS_P2;PMS_P1;PMS_P2;Temp;Humidity;BMP_temperature;BMP_pressure;BME280_temperature;BME280_humidity;BME280_pressure;Samples;Min_cycle;Max_cycle;Signal;HPM_P1;HPM_P2
2022/08/17 00:00:38;;;;;;;5.43;4.38;;;;;;;18.17;92.75;98097.50;5067255;28;20046;-59
2022/08/17 00:03:11;;;;;;;4.25;3.55;;;;;;;18.08;93.59;98096.41;5072010;28;20137;-59
2022/08/17 00:05:59;;;;;;;7.32;3.60;;;;;;;17.98;94.08;98090.91;5064758;28;20040;-59
2022/08/17 00:08:30;;;;;;;7.15;4.32;;;;;;;17.81;96.93;98091.09;5070239;28;20486;-59
2022/08/17 00:10:58;;;;;;;4.90;3.85;;;;;;;17.74;98.10;98091.34;5067341;28;20373;-59
2022/08/17 00:13:29;;;;;;;6.18;3.90;;;;;;;17.66;100.00;98083.66;5071240;28;20020;-59
2022/08/17 00:15:58;;;;;;;9.57;4.20;;;;;;;17.61;100.00;98074.59;5072578;28;20021;-59
2022/08/17 00:18:25;;;;;;;7.40;4.15;;;;;;;17.56;100.00;98080.84;5075460;28;20047;-59
2022/08/17 00:20:52;;;;;;;6.80;4.38;;;;;;;17.64;98.80;98079.53;5069891;28;20033;-59
2022/08/17 00:23:18;;;;;;;8.43;4.65;;;;;;;17.56;99.67;98078.13;5069569;28;20059;-59
2022/08/17 00:25:45;;;;;;;7.05;4.20;;;;;;;17.58;99.92;98081.41;5071866;28;20060;-59
2022/08/17 00:28:14;;;;;;;10.98;4.60;;;;;;;17.58;99.31;98075.94;5067502;28;20016;-59
2022/08/17 00:30:42;;;;;;;8.40;4.43;;;;;;;17.64;98.94;98085.81;5061147;28;20040;-59
2022/08/17 00:33:14;;;;;;;5.90;4.43;;;;;;;17.62;99.58;98071.56;5067822;28;20372;-59
2022/08/17 00:35:40;;;;;;;10.43;5.70;;;;;;;17.57;99.04;98071.56;5070482;28;20032;-59
2022/08/17 00:38:08;;;;;;;11.88;5.25;;;;;;;17.55;100.00;98079.19;5065785;28;20028;-59
2022/08/17 00:40:36;;;;;;;10.32;5.40;;;;;;;17.47;100.00;98072.31;5067258;28;20364;-59
2022/08/17 00:43:16;;;;;;;8.13;4.35;;;;;;;17.50;100.00;98073.69;5067620;28;20029;-59
2022/08/17 00:45:43;;;;;;;7.50;4.55;;;;;;;17.35;100.00;98073.66;5069870;28;20032;-60
2022/08/17 00:48:09;;;;;;;6.78;4.25;;;;;;;17.36;100.00;98070.63;5069078;28;20040;-61
2022/08/17 00:50:34;;;;;;;6.75;4.20;;;;;;;17.38;100.00;98063.00;5064005;28;20360;-61
2022/08/17 00:53:00;;;;;;;5.22;4.60;;;;;;;17.40;100.00;98063.56;5062252;28;20028;-62
2022/08/17 00:55:26;;;;;;;9.05;4.72;;;;;;;17.31;100.00;98062.41;5064921;28;20016;-61
2022/08/17 00:57:57;;;;;;;7.63;4.65;;;;;;;17.21;100.00;98068.66;5063253;28;20025;-61
2022/08/17 01:00:27;;;;;;;6.05;4.63;;;;;;;17.17;100.00;98073.00;5067495;28;20386;-59
2022/08/17 01:03:07;;;;;;;6.15;4.38;;;;;;;17.22;100.00;98070.28;5064945;28;20077;-59
2022/08/17 01:05:37;;;;;;;5.03;4.32;;;;;;;17.21;100.00;98071.38;5061233;28;20107;-62
2022/08/17 01:08:03;;;;;;;7.15;4.80;;;;;;;17.16;100.00;98065.03;5061883;28;20131;-62
2022/08/17 01:10:39;;;;;;;6.50;4.90;;;;;;;17.16;100.00;98063.16;5068863;28;20024;-59
2022/08/17 01:13:06;;;;;;;5.05;4.20;;;;;;;17.09;100.00;98068.03;5067456;28;20031;-60
2022/08/17 01:15:35;;;;;;;8.30;4.22;;;;;;;17.00;100.00;98064.13;5064851;28;20016;-60
2022/08/17 01:18:01;;;;;;;6.07;4.40;;;;;;;16.95;100.00;98061.34;5069407;28;20028;-59
2022/08/17 01:20:27;;;;;;;8.43;4.60;;;;;;;16.94;100.00;98070.66;5068075;28;20233;-60
2022/08/17 01:22:53;;;;;;;6.25;4.70;;;;;;;16.89;100.00;98056.94;5066829;28;20027;-60
2022/08/17 01:25:19;;;;;;;7.75;4.95;;;;;;;16.89;100.00;98060.50;5062757;28;20431;-59
2022/08/17 01:27:45;;;;;;;6.85;4.70;;;;;;;16.92;100.00;98056.41;5058345;28;20025;-60
2022/08/17 01:30:11;;;;;;;7.88;4.63;;;;;;;16.87;100.00;98057.19;5062753;28;20388;-60
2022/08/17 01:32:37;;;;;;;6.10;4.40;;;;;;;16.79;100.00;98057.69;5064776;28;20468;-60
2022/08/17 01:35:44;;;;;;;9.70;4.63;;;;;;;16.79;100.00;98063.16;5064066;28;20107;-59
2022/08/17 01:38:09;;;;;;;6.18;4.80;;;;;;;16.70;100.00;98057.34;5065262;28;20074;-60
2022/08/17 01:40:51;;;;;;;7.25;4.63;;;;;;;16.71;100.00;98061.69;5064036;28;20028;-60
2022/08/17 01:43:33;;;;;;;6.55;4.18;;;;;;;16.60;100.00;98071.72;5057582;28;20361;-60
2022/08/17 01:46:00;;;;;;;7.43;5.50;;;;;;;16.61;100.00;98069.81;5054895;28;20036;-60
2022/08/17 01:48:31;;;;;;;8.43;5.78;;;;;;;16.59;100.00;98074.72;5068785;28;20020;-60
2022/08/17 01:50:57;;;;;;;7.97;5.38;;;;;;;16.50;100.00;98066.16;5069380;28;20076;-60
2022/08/17 01:53:46;;;;;;;8.43;5.80;;;;;;;16.52;100.00;98074.13;5062778;28;20020;-60
2022/08/17 01:56:16;;;;;;;10.20;5.45;;;;;;;16.50;100.00;98077.09;5056648;28;20021;-59
2022/08/17 01:58:42;;;;;;;7.63;5.38;;;;;;;16.46;100.00;98073.25;5068997;28;20082;-60
2022/08/17 02:01:09;;;;;;;5.47;4.70;;;;;;;16.41;100.00;98068.56;5066827;28;20024;-60
2022/08/17 02:03:36;;;;;;;8.27;5.05;;;;;;;16.38;100.00;98069.09;5058337;28;20152;-60
2022/08/17 02:06:04;;;;;;;8.82;4.70;;;;;;;16.35;100.00;98069.59;5066312;28;20502;-59
2022/08/17 02:08:34;;;;;;;5.95;4.38;;;;;;;16.30;100.00;98082.38;5065375;28;20036;-60
2022/08/17 02:11:02;;;;;;;7.22;4.97;;;;;;;16.26;100.00;98065.69;5063368;28;20043;-60
2022/08/17 02:13:28;;;;;;;6.30;4.97;;;;;;;16.27;100.00;98066.50;5063411;28;20043;-59
2022/08/17 02:15:55;;;;;;;6.32;4.60;;;;;;;16.28;100.00;98071.72;5067167;28;20052;-59
2022/08/17 02:18:21;;;;;;;6.00;4.95;;;;;;;16.22;100.00;98072.75;5064756;28;20074;-60
2022/08/17 02:20:46;;;;;;;6.55;5.20;;;;;;;16.19;100.00;98075.97;5069217;28;20036;-60
2022/08/17 02:23:13;;;;;;;5.30;4.45;;;;;;;16.18;100.00;98075.16;5061878;28;20036;-60
2022/08/17 02:25:42;;;;;;;10.45;4.25;;;;;;;16.19;100.00;98075.97;5065776;28;20029;-63
2022/08/17 02:28:08;;;;;;;9.90;4.75;;;;;;;16.18;100.00;98071.59;5062515;28;20029;-63
2022/08/17 02:30:33;;;;;;;5.82;4.70;;;;;;;16.18;100.00;98077.06;5069869;28;20043;-62
2022/08/17 02:32:59;;;;;;;5.60;4.22;;;;;;;16.15;100.00;98074.84;5063959;28;20074;-60
2022/08/17 02:35:25;;;;;;;5.97;4.60;;;;;;;16.10;100.00;98083.00;5056660;28;20074;-59
2022/08/17 02:37:50;;;;;;;6.30;4.47;;;;;;;16.08;100.00;98074.22;5062955;28;20029;-60
2022/08/17 02:40:16;;;;;;;7.70;4.30;;;;;;;16.03;100.00;98071.44;5068318;28;20025;-59
2022/08/17 02:42:43;;;;;;;6.13;4.35;;;;;;;15.96;100.00;98083.41;5068903;28;20032;-60
2022/08/17 02:45:13;;;;;;;6.50;4.88;;;;;;;15.91;100.00;98075.16;5054091;28;20056;-60
2022/08/17 02:47:39;;;;;;;5.80;4.60;;;;;;;15.87;100.00;98078.63;5056980;28;20024;-60
2022/08/17 02:50:06;;;;;;;7.50;4.25;;;;;;;15.84;100.00;98084.59;5062963;28;20037;-60
2022/08/17 02:52:38;;;;;;;10.45;5.60;;;;;;;15.89;100.00;98085.50;5066090;28;20024;-60
2022/08/17 02:55:05;;;;;;;10.70;4.90;;;;;;;15.90;100.00;98089.88;5062069;28;20013;-60
2022/08/17 02:57:30;;;;;;;6.15;4.63;;;;;;;15.91;100.00;98085.25;5066110;28;20032;-60
2022/08/17 02:59:56;;;;;;;6.47;5.03;;;;;;;15.90;100.00;98086.31;5063935;28;20054;-60
2022/08/17 03:02:21;;;;;;;8.70;5.32;;;;;;;15.94;100.00;98099.19;5071178;28;20074;-60
2022/08/17 03:04:47;;;;;;;5.90;4.78;;;;;;;15.92;100.00;98086.88;5068903;28;20040;-60
2022/08/17 03:07:12;;;;;;;6.85;5.28;;;;;;;15.93;100.00;98092.09;5068537;28;20082;-60
2022/08/17 03:09:37;;;;;;;6.90;4.93;;;;;;;15.88;100.00;98085.75;5065322;28;20028;-60
2022/08/17 03:12:10;;;;;;;6.38;4.90;;;;;;;15.93;100.00;98092.09;5065312;28;20020;-60
2022/08/17 03:14:37;;;;;;;7.88;5.13;;;;;;;15.90;100.00;98083.56;5076911;22;20135;-70
2022/08/17 03:17:03;;;;;;;8.00;4.97;;;;;;;15.84;100.00;98069.06;5048986;28;20032;-70
2022/08/17 03:19:28;;;;;;;6.93;5.22;;;;;;;15.97;100.00;98087.75;5050502;28;20028;-71
2022/08/17 03:21:53;;;;;;;8.43;4.88;;;;;;;15.89;100.00;98066.41;5065985;28;20028;-70
2022/08/17 03:24:19;;;;;;;7.75;5.60;;;;;;;16.13;100.00;98086.00;5047444;28;20033;-70
2022/08/17 03:26:44;;;;;;;10.52;6.55;;;;;;;16.08;100.00;98088.69;5046505;28;20037;-70
2022/08/17 03:29:09;;;;;;;7.25;5.78;;;;;;;16.06;100.00;98092.75;5051840;28;20029;-70
2022/08/17 03:31:35;;;;;;;6.60;5.25;;;;;;;16.03;100.00;98090.53;5052950;28;20032;-70
2022/08/17 03:34:00;;;;;;;7.72;5.40;;;;;;;16.00;100.00;98086.44;5050487;28;20036;-70
2022/08/17 03:36:25;;;;;;;12.05;5.22;;;;;;;15.91;100.00;98080.59;5048216;28;20017;-70
2022/08/17 03:38:51;;;;;;;5.80;4.57;;;;;;;15.75;100.00;98073.34;5042311;28;20057;-70
2022/08/17 03:41:16;;;;;;;5.40;4.70;;;;;;;15.75;100.00;98087.78;5046543;28;20025;-71
2022/08/17 03:43:41;;;;;;;7.07;4.60;;;;;;;15.63;100.00;98076.16;5051552;28;20021;-70
2022/08/17 03:57:06;;;;;;;6.75;4.85;;;;;;;15.65;100.00;98093.09;5046292;28;20031;-68
2022/08/17 03:59:33;;;;;;;6.00;4.47;;;;;;;15.57;100.00;98097.06;5056523;28;20071;-63
2022/08/17 04:02:08;;;;;;;6.40;4.95;;;;;;;15.53;100.00;98092.38;5050952;28;20025;-66
2022/08/17 04:04:34;;;;;;;5.63;4.90;;;;;;;15.50;100.00;98101.06;5043361;28;20039;-66
2022/08/17 04:07:00;;;;;;;10.27;5.28;;;;;;;15.44;100.00;98097.44;5035909;28;20032;-67
2022/08/17 04:09:25;;;;;;;9.20;5.68;;;;;;;15.53;100.00;98122.38;5048694;28;20047;-64
2022/08/17 04:11:52;;;;;;;7.05;4.75;;;;;;;15.51;100.00;98117.19;5045369;28;20057;-65
2022/08/17 04:14:17;;;;;;;9.70;5.07;;;;;;;15.48;100.00;98109.50;5049356;28;20025;-64
2022/08/17 04:16:42;;;;;;;6.97;5.28;;;;;;;15.41;100.00;98121.66;5043043;28;20021;-64
2022/08/17 04:19:08;;;;;;;6.15;5.55;;;;;;;15.29;100.00;98108.13;5060904;28;20480;-67
2022/08/17 04:21:33;;;;;;;6.97;4.75;;;;;;;15.33;100.00;98128.38;5044634;28;20035;-64
2022/08/17 04:23:59;;;;;;;7.35;5.38;;;;;;;15.31;100.00;98125.06;5047386;28;20024;-64
2022/08/17 04:26:24;;;;;;;7.68;5.68;;;;;;;15.47;100.00;98129.66;5039899;28;20028;-65
2022/08/17 04:28:50;;;;;;;7.30;5.03;;;;;;;15.50;100.00;98131.88;5046712;28;20029;-72
2022/08/17 04:31:15;;;;;;;8.05;5.75;;;;;;;15.62;100.00;98139.13;5048138;28;20107;-70
2022/08/17 04:33:44;;;;;;;7.15;5.72;;;;;;;15.65;100.00;98138.63;5051486;28;20112;-72
2022/08/17 04:36:13;;;;;;;8.13;5.90;;;;;;;15.60;100.00;98160.38;5043478;28;20108;-70
2022/08/17 04:38:42;;;;;;;7.25;5.45;;;;;;;15.47;100.00;98145.19;5049592;28;20033;-70
2022/08/17 04:43:57;;;;;;;8.40;5.32;;;;;;;15.47;100.00;98162.38;5045177;28;20067;-66
2022/08/17 04:46:25;;;;;;;11.77;5.40;;;;;;;15.44;100.00;98151.97;5046221;28;20047;-67
2022/08/17 04:48:54;;;;;;;8.73;5.75;;;;;;;15.69;100.00;98161.59;5044415;28;20390;-67
2022/08/17 04:51:24;;;;;;;7.38;5.65;;;;;;;15.74;100.00;98164.41;5056998;28;20028;-69
2022/08/17 04:53:56;;;;;;;6.55;5.40;;;;;;;15.80;100.00;98174.31;5061130;28;20025;-70
2022/08/17 04:56:24;;;;;;;9.93;5.40;;;;;;;15.80;100.00;98179.78;5047778;28;20106;-66
2022/08/17 04:58:51;;;;;;;7.73;5.60;;;;;;;15.83;100.00;98184.72;5045538;28;20086;-71
2022/08/17 05:01:18;;;;;;;8.10;5.20;;;;;;;15.91;100.00;98181.53;5050128;28;20279;-71
2022/08/17 05:03:44;;;;;;;7.15;4.47;;;;;;;16.03;100.00;98197.78;5046729;28;20390;-63
2022/08/17 05:06:09;;;;;;;7.30;5.40;;;;;;;16.18;100.00;98195.25;5038271;28;20013;-69
2022/08/17 05:08:35;;;;;;;8.45;4.90;;;;;;;16.40;100.00;98189.78;5057591;28;20041;-65
2022/08/17 05:11:00;;;;;;;9.90;5.72;;;;;;;16.59;100.00;98192.16;5047327;28;20493;-68
2022/08/17 05:13:30;;;;;;;7.28;5.15;;;;;;;16.81;100.00;98171.09;5046438;28;20055;-68
2022/08/17 05:16:01;;;;;;;11.68;6.00;;;;;;;16.93;100.00;98191.97;5046838;28;20079;-68
2022/08/17 05:18:28;;;;;;;9.18;5.32;;;;;;;16.91;100.00;98185.94;5042756;28;20029;-68
2022/08/17 05:20:54;;;;;;;9.68;5.45;;;;;;;16.95;100.00;98178.84;5044485;28;20029;-67
2022/08/17 05:23:21;;;;;;;12.95;5.97;;;;;;;16.97;100.00;98191.16;5044725;28;20028;-65
2022/08/17 05:25:48;;;;;;;16.63;5.55;;;;;;;17.14;100.00;98184.78;5045705;28;20016;-65
2022/08/17 05:28:16;;;;;;;8.90;6.40;;;;;;;17.29;100.00;98182.97;5046633;28;20029;-64
2022/08/17 05:30:42;;;;;;;19.55;7.10;;;;;;;17.58;100.00;98179.91;5047258;28;20028;-65
2022/08/17 05:33:15;;;;;;;13.00;6.70;;;;;;;17.92;97.14;98179.53;5043017;28;20041;-64
2022/08/17 05:35:43;;;;;;;18.08;6.15;;;;;;;18.25;93.98;98166.53;5045144;28;20028;-64
2022/08/17 05:38:09;;;;;;;11.77;5.47;;;;;;;18.48;91.23;98171.53;5040713;28;20048;-64
2022/08/17 05:40:35;;;;;;;18.23;5.97;;;;;;;18.66;88.90;98169.41;5045291;28;20059;-61
2022/08/17 05:43:03;;;;;;;11.07;5.82;;;;;;;18.85;86.62;98175.19;5040191;28;20043;-64
2022/08/17 05:45:30;;;;;;;7.38;5.25;;;;;;;19.22;84.01;98167.50;5042080;28;20040;-64
2022/08/17 05:47:55;;;;;;;8.68;5.13;;;;;;;19.57;80.92;98175.97;5045291;28;20029;-67
2022/08/17 05:50:27;;;;;;;9.73;6.22;;;;;;;19.83;77.82;98177.63;5042746;28;20056;-61
2022/08/17 05:53:15;;;;;;;13.35;5.38;;;;;;;20.04;75.95;98170.13;5045988;28;20438;-67
2022/08/17 05:56:03;;;;;;;6.78;4.38;;;;;;;20.25;75.24;98156.28;5045212;28;20048;-67
2022/08/17 05:58:47;;;;;;;9.70;5.05;;;;;;;20.65;73.58;98169.03;5042183;28;20128;-68
2022/08/17 06:01:57;;;;;;;7.50;4.78;;;;;;;20.87;69.99;98165.03;5036710;28;20043;-70
2022/08/17 06:05:00;;;;;;;9.90;4.78;;;;;;;21.41;68.09;98170.38;5021164;28;20447;-67
2022/08/17 06:07:52;;;;;;;9.05;4.78;;;;;;;22.09;64.94;98163.84;5040166;28;20479;-69
2022/08/17 06:10:42;;;;;;;7.13;4.45;;;;;;;22.70;61.05;98177.97;5041052;28;20029;-69
2022/08/17 06:13:14;;;;;;;4.40;3.40;;;;;;;24.47;55.60;98175.13;5045920;28;20021;-70
2022/08/17 06:16:10;;;;;;;7.22;3.72;;;;;;;26.50;49.31;98177.69;5039894;28;20527;-66
2022/08/17 06:18:47;;;;;;;8.13;3.67;;;;;;;27.96;45.44;98161.28;5025771;28;20051;-65
2022/08/17 06:21:16;;;;;;;6.43;3.90;;;;;;;28.51;43.76;98178.22;5042110;28;20032;-65
2022/08/17 06:23:47;;;;;;;5.10;4.05;;;;;;;29.51;42.08;98184.78;5039531;28;20025;-65
2022/08/17 06:26:19;;;;;;;5.60;4.00;;;;;;;29.73;41.21;98191.94;5046464;28;20490;-66
2022/08/17 06:28:55;;;;;;;6.18;4.22;;;;;;;28.66;42.69;98191.50;5049504;28;20041;-64
2022/08/17 06:31:27;;;;;;;8.95;4.60;;;;;;;27.75;43.99;98194.50;5036411;28;20111;-64
2022/08/17 06:33:55;;;;;;;8.05;4.25;;;;;;;28.74;42.79;98195.38;5043047;28;20032;-63
2022/08/17 06:36:25;;;;;;;6.88;4.78;;;;;;;29.24;41.36;98203.72;5047426;28;20017;-67
2022/08/17 06:39:18;;;;;;;11.63;5.22;;;;;;;28.69;42.20;98209.50;5049237;28;20441;-64
2022/08/17 06:42:05;;;;;;;6.78;4.20;;;;;;;29.20;41.08;98208.34;5051174;28;20148;-66
2022/08/17 06:44:39;;;;;;;6.47;4.13;;;;;;;29.72;40.28;98195.91;5045109;28;20074;-66
2022/08/17 06:47:12;;;;;;;7.68;4.30;;;;;;;30.97;38.22;98191.63;5043269;28;20039;-73
2022/08/17 06:50:02;;;;;;;12.55;4.50;;;;;;;31.95;37.15;98215.59;5045025;28;20029;-66
2022/08/17 06:52:33;;;;;;;5.05;3.67;;;;;;;32.20;36.60;98221.84;5040583;28;20032;-68
2022/08/17 06:55:10;;;;;;;6.72;3.60;;;;;;;32.56;35.52;98211.53;5048431;28;20021;-71
2022/08/17 06:57:40;;;;;;;7.65;3.63;;;;;;;33.66;34.15;98211.53;5043543;28;20029;-69
2022/08/17 07:00:11;;;;;;;6.65;3.70;;;;;;;32.31;35.70;98227.69;5047846;28;20021;-68
2022/08/17 07:02:49;;;;;;;5.38;3.67;;;;;;;29.38;40.44;98224.91;5048482;28;20049;-66
2022/08/17 07:05:17;;;;;;;4.40;3.25;;;;;;;27.09;45.16;98216.13;5050114;28;20024;-66
2022/08/17 07:08:02;;;;;;;8.82;3.40;;;;;;;26.86;46.49;98227.41;5048317;28;20036;-68
2022/08/17 07:10:35;;;;;;;14.20;3.90;;;;;;;29.25;41.77;98205.34;5042569;28;20033;-67
2022/08/17 07:13:15;;;;;;;8.77;4.20;;;;;;;30.71;38.54;98194.81;5049567;28;20111;-70
2022/08/17 07:15:41;;;;;;;5.80;3.65;;;;;;;33.14;34.96;98194.03;5050381;28;20162;-68
2022/08/17 07:18:08;;;;;;;7.88;3.20;;;;;;;34.65;32.60;98190.00;5045700;28;20052;-70
2022/08/17 07:20:34;;;;;;;8.68;3.58;;;;;;;36.59;29.63;98181.75;5047046;28;20068;-70
2022/08/17 07:23:14;;;;;;;5.05;2.95;;;;;;;36.67;30.08;98185.44;5042414;28;20021;-71
2022/08/17 07:25:39;;;;;;;3.63;2.85;;;;;;;36.69;30.25;98193.50;5046042;28;20035;-71
2022/08/17 07:28:06;;;;;;;8.32;3.13;;;;;;;36.80;29.55;98186.72;5065523;28;20097;-72
2022/08/17 07:30:47;;;;;;;7.18;3.20;;;;;;;37.43;28.12;98184.63;5050120;28;20417;-72
2022/08/17 07:33:21;;;;;;;6.72;3.33;;;;;;;37.94;28.04;98182.78;5042242;28;20100;-71
2022/08/17 07:35:48;;;;;;;6.45;3.42;;;;;;;34.43;32.03;98174.00;5046559;28;20025;-75
2022/08/17 07:38:27;;;;;;;5.15;2.55;;;;;;;33.82;33.13;98170.13;5042810;28;20026;-74
2022/08/17 07:41:01;;;;;;;3.35;2.42;;;;;;;35.85;30.51;98173.47;5047957;28;20025;-71
2022/08/17 07:43:30;;;;;;;4.15;2.58;;;;;;;38.08;27.39;98170.69;5046065;28;20059;-73
2022/08/17 07:48:54;;;;;;;3.83;2.33;;;;;;;39.16;25.28;98174.19;5049562;28;20039;-72
2022/08/17 07:51:23;;;;;;;6.30;2.88;;;;;;;40.31;24.58;98180.00;5048687;28;20036;-72
2022/08/17 07:53:48;;;;;;;;;;;;;;;39.90;24.66;98177.06;5050248;28;20029;-69
2022/08/17 07:56:41;;;;;;;4.00;2.47;;;;;;;39.59;25.18;98182.47;5047465;28;20338;-69
2022/08/17 07:59:16;;;;;;;6.10;2.58;;;;;;;38.11;26.16;98187.63;5044739;28;20028;-69
2022/08/17 08:01:46;;;;;;;4.93;2.55;;;;;;;38.75;26.08;98180.34;5041183;28;20025;-67
2022/08/17 08:04:22;;;;;;;4.15;2.10;;;;;;;40.42;24.45;98182.75;5044591;28;20033;-72
2022/08/17 08:06:53;;;;;;;6.00;2.28;;;;;;;41.05;23.86;98193.88;5038168;28;20040;-73
2022/08/17 08:09:58;;;;;;;3.95;2.33;;;;;;;41.20;23.41;98200.22;5039093;28;20029;-73
2022/08/17 08:12:35;;;;;;;6.50;2.60;;;;;;;35.88;28.55;98198.81;5044789;28;20386;-71
2022/08/17 08:15:08;;;;;;;4.10;2.45;;;;;;;34.50;30.71;98199.38;5038974;28;20025;-72
2022/08/17 08:17:45;;;;;;;4.40;2.42;;;;;;;32.49;34.10;98212.19;5040704;28;20074;-71
2022/08/17 08:20:11;;;;;;;4.43;2.70;;;;;;;31.41;35.60;98204.88;5047560;28;20036;-72
2022/08/17 08:23:06;;;;;;;6.43;2.63;;;;;;;30.98;37.06;98220.38;5043818;28;20028;-70
2022/08/17 08:25:39;;;;;;;5.13;2.80;;;;;;;31.17;37.13;98214.16;5034518;28;20486;-71
2022/08/17 08:28:15;;;;;;;4.38;2.67;;;;;;;32.21;35.57;98222.66;5044472;28;20147;-70
2022/08/17 08:30:46;;;;;;;7.13;2.85;;;;;;;34.59;31.97;98214.00;5046824;28;20036;-71
2022/08/17 08:33:50;;;;;;;6.60;2.78;;;;;;;34.83;31.74;98218.38;5042813;28;20043;-69
2022/08/17 08:36:38;;;;;;;8.48;2.70;;;;;;;32.56;34.22;98230.31;5035661;28;20071;-70
2022/08/17 08:39:18;;;;;;;7.43;2.85;;;;;;;31.62;36.06;98233.47;5042629;28;20044;-70
2022/08/17 08:41:57;;;;;;;6.40;2.85;;;;;;;30.99;37.45;98219.19;5042991;28;20029;-70
2022/08/17 08:44:34;;;;;;;5.57;2.97;;;;;;;31.43;37.11;98224.91;5052315;28;20159;-71
2022/08/17 08:47:17;;;;;;;4.60;3.00;;;;;;;32.56;34.81;98225.53;5041693;28;20025;-69
2022/08/17 08:49:42;;;;;;;3.72;2.67;;;;;;;34.05;33.01;98223.47;5044951;28;20052;-69
2022/08/17 08:52:20;;;;;;;3.72;2.53;;;;;;;33.96;32.47;98226.53;5046234;28;20068;-69
2022/08/17 08:55:06;;;;;;;10.38;2.67;;;;;;;33.82;32.92;98217.84;5036945;28;20021;-70
2022/08/17 08:57:39;;;;;;;8.43;2.65;;;;;;;32.94;34.30;98221.22;5045818;28;20060;-70
2022/08/17 09:00:13;;;;;;;3.95;2.83;;;;;;;31.74;36.53;98220.59;5047915;28;20041;-71
2022/08/17 09:02:54;;;;;;;3.80;2.67;;;;;;;30.90;36.97;98221.34;5038093;28;20096;-71
2022/08/17 09:05:38;;;;;;;3.25;2.28;;;;;;;30.25;37.56;98219.25;5045159;28;20020;-70
2022/08/17 09:08:30;;;;;;;4.40;2.70;;;;;;;29.69;39.23;98227.25;5045914;28;20037;-71
2022/08/17 09:11:02;;;;;;;4.32;2.30;;;;;;;29.21;40.06;98228.66;5041899;28;20071;-71
2022/08/17 09:13:56;;;;;;;6.93;3.22;;;;;;;29.22;40.47;98221.94;5045957;28;20331;-70
2022/08/17 09:16:28;;;;;;;4.28;2.92;;;;;;;29.60;39.75;98238.44;5067144;22;20127;-66
2022/08/17 09:19:02;;;;;;;4.20;2.92;;;;;;;29.33;40.77;98234.28;5041580;28;22344;-66
2022/08/17 09:21:48;;;;;;;4.82;2.47;;;;;;;28.98;41.69;98244.88;5040059;28;20029;-66
2022/08/17 09:24:23;;;;;;;4.57;2.40;;;;;;;28.91;40.96;98234.25;5041780;28;20057;-66
2022/08/17 09:27:10;;;;;;;3.97;2.47;;;;;;;28.97;41.02;98224.53;5029773;28;20124;-66
2022/08/17 09:29:40;;;;;;;3.13;2.33;;;;;;;28.64;39.91;98230.03;5025208;28;20045;-67
2022/08/17 09:32:31;;;;;;;6.88;2.70;;;;;;;28.59;41.11;98233.81;5022306;28;20410;-66
2022/08/17 09:35:02;;;;;;;4.97;3.00;;;;;;;28.73;41.04;98232.75;5022321;28;20034;-66
2022/08/17 09:38:16;;;;;;;5.72;2.72;;;;;;;28.54;41.45;98249.88;5018441;28;20127;-66
2022/08/17 09:40:55;;;;;;;4.97;2.80;;;;;;;28.27;41.76;98251.09;5020176;28;20048;-65
2022/08/17 09:43:44;;;;;;;3.47;2.45;;;;;;;28.14;41.69;98251.00;5017475;28;20025;-65
2022/08/17 09:46:20;;;;;;;3.92;3.10;;;;;;;28.16;42.05;98257.06;5025291;28;20029;-65
2022/08/17 09:48:56;;;;;;;6.15;2.50;;;;;;;28.17;42.35;98257.88;5027736;28;20084;-65
2022/08/17 09:51:34;;;;;;;5.82;2.90;;;;;;;27.91;42.31;98249.63;5028740;28;20021;-65
2022/08/17 09:54:00;;;;;;;3.83;2.70;;;;;;;27.71;42.91;98265.00;5021037;28;20041;-65
2022/08/17 09:56:55;;;;;;;6.47;3.05;;;;;;;27.27;43.44;98255.88;5029153;28;20151;-66
2022/08/17 09:59:39;;;;;;;4.22;2.92;;;;;;;27.25;43.92;98267.31;5026116;28;20026;-66
2022/08/17 10:02:42;;;;;;;3.97;2.67;;;;;;;26.75;45.13;98245.53;5021035;28;20544;-66
2022/08/17 10:05:16;;;;;;;5.03;3.00;;;;;;;27.03;45.18;98265.47;5020868;28;20465;-66
2022/08/17 10:08:08;;;;;;;6.75;3.15;;;;;;;26.61;45.38;98262.28;5032590;28;20430;-68
2022/08/17 10:11:02;;;;;;;6.50;2.80;;;;;;;26.42;45.77;98278.34;5023644;28;20029;-66
2022/08/17 10:13:42;;;;;;;4.75;3.03;;;;;;;26.12;46.70;98286.38;5024874;28;20018;-66
2022/08/17 10:16:37;;;;;;;3.70;3.10;;;;;;;26.26;46.95;98275.19;5025220;28;20025;-66
2022/08/17 10:19:22;;;;;;;6.35;3.20;;;;;;;26.20;46.71;98251.53;5019786;28;20025;-66
2022/08/17 10:27:51;;;;;;;6.65;3.00;;;;;;;25.70;54.52;98273.84;5023344;28;20347;-66
2022/08/17 10:30:23;;;;;;;6.07;2.88;;;;;;;25.61;58.41;98279.34;5027656;28;20021;-65
2022/08/17 10:32:55;;;;;;;5.28;2.92;;;;;;;25.58;58.33;98285.50;5037064;28;20029;-64
2022/08/17 10:36:00;;;;;;;4.10;3.25;;;;;;;25.37;58.73;98293.50;5021391;28;20035;-66
2022/08/17 10:38:57;;;;;;;8.18;2.92;;;;;;;25.36;65.92;98283.53;5024905;28;20033;-67
2022/08/17 10:41:32;;;;;;;7.28;3.13;;;;;;;25.14;60.91;98300.91;5026395;28;20021;-65
2022/08/17 10:44:09;;;;;;;6.40;3.60;;;;;;;25.01;63.51;98299.81;5022339;28;20051;-66
2022/08/17 10:47:00;;;;;;;5.65;3.42;;;;;;;25.29;63.28;98305.31;5021812;28;20543;-65
2022/08/17 10:49:37;;;;;;;5.95;3.28;;;;;;;25.49;65.15;98310.38;5028142;28;20423;-65
2022/08/17 10:52:26;;;;;;;4.65;3.45;;;;;;;25.47;67.48;98317.38;5028365;28;20398;-65
2022/08/17 10:54:51;;;;;;;7.20;3.42;;;;;;;25.65;63.39;98318.31;5026614;28;20029;-66
2022/08/17 10:57:33;;;;;;;5.97;3.30;;;;;;;25.59;67.37;98315.66;5026367;28;20033;-66
2022/08/17 11:00:00;;;;;;;4.03;3.03;;;;;;;25.90;57.75;98317.72;5026349;28;20553;-67
2022/08/17 11:02:39;;;;;;;8.75;3.95;;;;;;;26.13;65.23;98317.69;5029105;28;20510;-66
2022/08/17 11:05:08;;;;;;;6.07;3.80;;;;;;;25.75;67.03;98326.38;5026909;28;20100;-66
2022/08/17 11:08:09;;;;;;;7.57;3.67;;;;;;;25.31;65.59;98341.84;5027376;28;20029;-66
2022/08/17 11:11:22;;;;;;;7.22;3.38;;;;;;;25.16;65.45;98339.41;5041053;28;20040;-70
2022/08/17 11:14:22;;;;;;;8.85;3.97;;;;;;;24.94;70.29;98349.22;4976297;28;20087;-66
2022/08/17 11:17:13;;;;;;;6.03;4.03;;;;;;;24.76;66.33;98330.78;5021202;28;20017;-67
2022/08/17 11:20:12;;;;;;;7.30;3.60;;;;;;;24.62;69.03;98331.59;5017748;28;20025;-67
2022/08/17 11:23:09;;;;;;;6.82;4.25;;;;;;;24.61;72.94;98363.19;5018198;28;20111;-66
2022/08/17 11:25:41;;;;;;;6.32;3.25;;;;;;;24.61;69.67;98370.66;5021070;28;20585;-66
2022/08/17 11:28:18;;;;;;;9.75;3.70;;;;;;;24.55;72.58;98358.88;5022825;28;20037;-69
2022/08/17 11:30:51;;;;;;;4.85;4.13;;;;;;;24.46;74.00;98364.28;5019518;28;20671;-69
2022/08/17 11:33:28;;;;;;;5.53;4.55;;;;;;;24.68;74.68;98365.53;5024402;28;20037;-69
2022/08/17 11:36:22;;;;;;;7.75;4.00;;;;;;;24.80;76.85;98367.78;5024992;28;20026;-69
2022/08/17 11:39:05;;;;;;;7.38;4.20;;;;;;;24.76;71.71;98370.38;5027430;28;20025;-66
2022/08/17 11:41:47;;;;;;;7.82;3.80;;;;;;;24.68;66.80;98365.53;5024328;28;20033;-66
2022/08/17 11:44:31;;;;;;;7.55;3.78;;;;;;;24.67;65.10;98366.66;5026301;28;20104;-66
2022/08/17 11:52:51;;;;;;;4.60;3.05;;;;;;;25.00;61.04;98370.16;5047382;28;20146;-68
2022/08/17 11:55:33;;;;;;;5.20;2.90;;;;;;;24.66;61.53;98376.91;5051570;28;20017;-68
2022/08/17 11:58:22;;;;;;;5.18;2.72;;;;;;;24.80;60.54;98373.31;5046461;28;20033;-68
2022/08/17 12:00:50;;;;;;;;;;;;;;;24.89;58.54;98371.50;5024183;28;20025;-68
2022/08/17 12:03:25;;;;;;;2.65;2.42;;;;;;;25.02;58.44;98367.06;5023850;28;19950;-71
2022/08/17 12:06:00;;;;;;;3.70;2.95;;;;;;;24.94;57.76;98360.28;5036794;28;20022;-66
2022/08/17 12:08:31;;;;;;;6.38;3.00;;;;;;;24.80;60.70;98349.25;5016707;28;20030;-66
2022/08/17 12:11:09;;;;;;;5.32;3.20;;;;;;;24.80;58.42;98367.78;5023999;28;20032;-66
2022/08/17 12:13:46;;;;;;;5.43;3.05;;;;;;;24.65;58.92;98366.97;5024859;28;20064;-66
2022/08/17 12:16:17;;;;;;;6.05;2.95;;;;;;;24.67;60.97;98367.47;5025782;28;20486;-68
2022/08/17 12:18:58;;;;;;;3.90;2.97;;;;;;;24.57;59.98;98337.25;5042780;28;20025;-69
2022/08/17 12:21:47;;;;;;;7.20;3.28;;;;;;;24.77;63.60;98355.38;5025433;28;20026;-68
2022/08/17 12:25:10;;;;;;;5.78;3.20;;;;;;;25.01;64.26;98340.50;5023247;28;20399;-69
2022/08/17 12:27:44;;;;;;;4.38;2.97;;;;;;;25.28;61.38;98323.91;4964636;28;20513;-68
2022/08/17 12:30:12;;;;;;;5.07;3.10;;;;;;;25.62;60.17;98330.03;4961326;28;20129;-68